Time;durP1;ratioP1;P1;durP2;ratioP2;P2;SDS_P1;SDS_P2;PMS_P1;PMS_P2;Temp;Humidity;BMP_temperature;BMP_pressure;BME280_temperature;BME280_humidity;BME280_pressure;Samples;Min_cycle;Max_cycle;Signal;HPM_P1;HPM_P2
2024/03/06 12:23:36;;;;;;;41.40;21.82;;;;;;;4.40;59.08;100979.53;1765712;80;28786;-72
2024/03/06 12:26:11;;;;;;;44.03;21.50;;;;;;;4.34;59.00;100983.68;1724484;83;21137;-72
2024/03/06 12:28:40;;;;;;;42.27;20.80;;;;;;;4.27;58.33;100981.19;1723467;82;21138;-72
2024/03/06 12:31:09;;;;;;;44.13;22.70;;;;;;;4.18;58.27;100985.25;1687407;84;21154;-72
2024/03/06 12:33:39;;;;;;;41.02;22.00;;;;;;;4.05;58.16;100989.09;1707894;84;21665;-70
2024/03/06 12:36:10;;;;;;;40.67;20.32;;;;;;;3.96;58.46;100986.37;1708127;84;21149;-71
2024/03/06 12:38:39;;;;;;;36.73;20.08;;;;;;;3.92;58.67;100980.88;1708096;84;21600;-70
2024/03/06 12:41:08;;;;;;;39.05;20.68;;;;;;;3.89;58.56;100981.98;1708221;84;21177;-71
2024/03/06 12:43:37;;;;;;;39.90;19.30;;;;;;;3.86;58.65;100986.33;1707932;83;21177;-71
2024/03/06 12:46:06;;;;;;;40.38;21.23;;;;;;;3.87;59.91;100988.05;1708197;84;21173;-72
2024/03/06 12:48:35;;;;;;;39.50;19.05;;;;;;;3.92;59.35;100986.30;1721578;83;21170;-71
2024/03/06 12:51:04;;;;;;;35.60;18.87;;;;;;;3.91;58.58;100985.44;1724485;82;21139;-72
2024/03/06 12:53:35;;;;;;;38.63;19.87;;;;;;;3.85;58.47;100989.18;1724420;83;21138;-72
2024/03/06 12:56:05;;;;;;;39.05;20.02;;;;;;;3.78;58.53;100986.17;1724479;83;21162;-74
2024/03/06 12:58:37;;;;;;;36.77;19.57;;;;;;;3.76;58.61;101005.28;1724464;83;21185;-71
2024/03/06 13:01:06;;;;;;;46.25;17.42;;;;;;;3.76;58.45;101011.20;1724574;83;21166;-73
2024/03/06 13:03:34;;;;;;;36.13;17.40;;;;;;;3.71;58.17;100995.36;1724484;83;21130;-72
2024/03/06 13:06:06;;;;;;;38.17;18.17;;;;;;;3.64;58.09;101001.47;1724579;83;21605;-71
2024/03/06 13:08:35;;;;;;;32.98;17.15;;;;;;;3.57;58.49;101003.88;1724422;82;21189;-71
2024/03/06 13:11:06;;;;;;;38.02;16.37;;;;;;;3.52;58.41;101005.29;1724674;83;21174;-72
2024/03/06 13:13:35;;;;;;;35.80;18.10;;;;;;;3.50;58.58;101000.86;1724627;83;21269;-72
2024/03/06 13:16:04;;;;;;;33.78;17.82;;;;;;;3.52;58.67;100998.52;1724533;83;21130;-72
2024/03/06 13:18:34;;;;;;;34.15;17.27;;;;;;;3.55;58.97;100999.09;1724325;83;21131;-74
2024/03/06 13:21:03;;;;;;;37.17;19.12;;;;;;;3.59;58.90;101006.45;1696150;83;21138;-72
2024/03/06 13:23:34;;;;;;;36.65;17.17;;;;;;;3.58;58.73;101006.09;1707353;83;21197;-73
2024/03/06 13:26:05;;;;;;;35.38;16.87;;;;;;;3.65;60.19;101001.33;1707167;84;21162;-72
2024/03/06 13:28:34;;;;;;;39.80;18.40;;;;;;;3.63;58.73;100997.05;1707333;84;21636;-72
2024/03/06 13:31:06;;;;;;;37.75;18.23;;;;;;;3.53;58.63;100996.16;1707039;84;21178;-71
2024/03/06 13:33:34;;;;;;;35.23;17.12;;;;;;;3.50;58.69;100994.59;1706966;84;21189;-72
2024/03/06 13:36:03;;;;;;;34.15;17.17;;;;;;;3.47;58.42;100992.16;1681662;84;21193;-72
2024/03/06 13:38:34;;;;;;;31.87;16.77;;;;;;;3.44;58.20;100988.36;1707237;84;21146;-73
2024/03/06 13:41:02;;;;;;;40.17;17.45;;;;;;;3.45;58.22;100992.78;1681403;84;21142;-72
2024/03/06 13:43:32;;;;;;;41.92;17.65;;;;;;;3.46;58.22;100991.80;1707263;84;21541;-73
2024/03/06 13:46:01;;;;;;;37.98;18.42;;;;;;;3.46;58.07;100987.23;1706996;84;21415;-72
2024/03/06 13:48:30;;;;;;;33.55;16.15;;;;;;;3.43;58.09;100990.22;1707000;84;21145;-73
2024/03/06 13:50:59;;;;;;;38.28;18.48;;;;;;;3.43;57.98;100992.07;1707168;82;21201;-71
2024/03/06 13:53:28;;;;;;;34.98;17.55;;;;;;;3.36;58.17;100999.89;1706954;84;21177;-73
2024/03/06 13:55:57;;;;;;;33.85;17.00;;;;;;;3.35;58.22;100995.47;1707288;84;21149;-72
2024/03/06 13:58:26;;;;;;;34.15;17.70;;;;;;;3.36;58.42;100996.31;1707002;84;21663;-72
2024/03/06 14:00:54;;;;;;;35.52;18.52;;;;;;;3.34;58.48;100993.75;1707110;84;21219;-72
2024/03/06 14:03:24;;;;;;;35.58;17.35;;;;;;;3.35;58.55;100998.17;1707009;84;21173;-73
2024/03/06 14:05:54;;;;;;;38.95;19.12;;;;;;;3.35;58.53;100998.17;1707094;84;21177;-71
2024/03/06 14:08:25;;;;;;;33.18;17.40;;;;;;;3.31;58.55;100998.58;1706966;84;21146;-71
2024/03/06 14:10:55;;;;;;;32.73;16.52;;;;;;;3.29;58.74;101002.78;1707058;84;21185;-72
2024/03/06 14:13:23;;;;;;;34.03;16.70;;;;;;;3.26;58.53;100996.78;1707041;83;21146;-73
2024/03/06 14:15:53;;;;;;;33.90;16.75;;;;;;;3.22;58.73;101003.42;1681186;84;21655;-71
2024/03/06 14:18:21;;;;;;;35.73;16.60;;;;;;;3.20;58.97;101002.20;1707100;83;21174;-71
2024/03/06 14:20:50;;;;;;;36.40;18.55;;;;;;;3.19;59.13;100993.73;1706828;83;21189;-72
2024/03/06 14:23:20;;;;;;;40.15;18.25;;;;;;;3.21;59.37;100998.51;1723925;83;21609;-71
2024/03/06 14:25:49;;;;;;;38.75;19.95;;;;;;;3.22;59.49;100997.52;1726426;83;21197;-72
2024/03/06 14:28:18;;;;;;;38.73;18.80;;;;;;;3.24;61.34;100999.59;1726975;83;21166;-66
2024/03/06 14:30:47;;;;;;;36.20;19.00;;;;;;;3.24;60.38;101002.30;1702792;83;21170;-70
2024/03/06 14:33:16;;;;;;;41.88;20.35;;;;;;;3.21;60.12;100999.00;1727145;83;21154;-71
2024/03/06 14:35:45;;;;;;;44.27;19.75;;;;;;;3.20;60.18;101000.85;1702652;83;21150;-71
2024/03/06 14:38:14;;;;;;;44.90;21.57;;;;;;;3.25;60.28;100999.09;1702819;83;21142;-69
2024/03/06 14:40:44;;;;;;;44.53;19.40;;;;;;;3.29;60.33;100996.51;1727311;83;21568;-70
2024/03/06 14:43:13;;;;;;;44.13;19.73;;;;;;;3.36;61.28;100999.89;1726292;83;21680;-70
2024/03/06 14:45:42;;;;;;;41.98;19.45;;;;;;;3.39;60.91;101000.97;1726815;83;21165;-70
2024/03/06 14:48:12;;;;;;;44.63;19.30;;;;;;;3.44;60.95;101000.55;1726911;83;21601;-70
2024/03/06 14:50:41;;;;;;;38.53;19.05;;;;;;;3.42;60.57;101002.05;1726922;83;21098;-70
2024/03/06 14:53:12;;;;;;;34.85;17.52;;;;;;;3.39;60.47;101001.46;1727087;83;21213;-71
2024/03/06 14:55:41;;;;;;;37.70;18.80;;;;;;;3.34;60.42;101000.52;1727027;83;21162;-72
2024/03/06 14:58:09;;;;;;;35.98;18.87;;;;;;;3.25;60.65;101016.70;1727076;83;21658;-71
2024/03/06 15:00:38;;;;;;;36.33;17.70;;;;;;;3.19;60.89;101004.06;1727071;83;21098;-70
2024/03/06 15:03:07;;;;;;;34.83;16.65;;;;;;;3.22;61.76;101011.55;1726875;83;21542;-71
2024/03/06 15:05:36;;;;;;;40.20;18.40;;;;;;;3.20;61.51;101021.16;1726990;83;21134;-71
2024/03/06 15:08:06;;;;;;;37.88;18.05;;;;;;;3.19;61.78;101012.18;1727130;83;21640;-70
2024/03/06 15:10:36;;;;;;;43.33;18.32;;;;;;;3.23;61.67;101017.33;1727379;83;21110;-70
2024/03/06 15:13:07;;;;;;;40.70;18.87;;;;;;;3.24;61.63;101013.63;1726975;83;21178;-70
2024/03/06 15:15:35;;;;;;;35.28;16.10;;;;;;;3.26;61.64;101023.86;1726856;83;21122;-71
2024/03/06 15:18:05;;;;;;;36.23;16.12;;;;;;;3.27;61.35;101033.70;1727074;83;21126;-70
2024/03/06 15:20:35;;;;;;;35.35;16.07;;;;;;;3.21;61.03;101030.14;1726924;83;21151;-71
2024/03/06 15:23:04;;;;;;;30.97;15.32;;;;;;;3.16;61.18;101027.34;1727048;83;21590;-70
2024/03/06 15:25:32;;;;;;;31.77;15.35;;;;;;;3.16;61.04;101030.55;1733927;81;21148;-71
2024/03/06 15:28:01;;;;;;;28.80;14.50;;;;;;;3.17;61.22;101032.27;1735309;81;21192;-71
2024/03/06 15:30:31;;;;;;;28.50;14.10;;;;;;;3.18;61.11;101033.48;1729447;81;21213;-71
2024/03/06 15:33:02;;;;;;;33.15;14.83;;;;;;;3.15;60.91;101042.38;1729320;83;21585;-71
2024/03/06 15:35:32;;;;;;;26.90;13.62;;;;;;;3.12;60.70;101045.34;1705171;83;21142;-72
2024/03/06 15:38:00;;;;;;;28.17;13.50;;;;;;;3.07;60.82;101043.05;1729342;83;21161;-70
2024/03/06 15:40:29;;;;;;;32.28;15.58;;;;;;;3.07;60.94;101047.10;1729432;83;21177;-71
2024/03/06 15:42:59;;;;;;;32.23;16.15;;;;;;;3.07;60.90;101048.45;1729225;83;21188;-71
2024/03/06 15:45:27;;;;;;;31.85;13.48;;;;;;;3.09;61.01;101055.95;1729226;83;21651;-73
2024/03/06 15:47:56;;;;;;;28.45;13.75;;;;;;;3.08;61.10;101054.23;1729198;81;21142;-71
2024/03/06 15:50:25;;;;;;;27.82;12.75;;;;;;;3.06;61.10;101051.30;1704889;83;21679;-71
2024/03/06 15:52:53;;;;;;;27.27;13.53;;;;;;;3.02;61.24;101057.47;1704722;83;21178;-71
2024/03/06 15:55:22;;;;;;;26.07;13.15;;;;;;;3.01;61.35;101062.53;1729195;83;21656;-71
2024/03/06 15:57:51;;;;;;;26.15;12.03;;;;;;;3.00;61.50;101078.91;1729160;82;21232;-71
2024/03/06 16:00:19;;;;;;;25.97;12.78;;;;;;;2.95;61.63;101067.61;1704833;83;21189;-71
2024/03/06 16:02:48;;;;;;;25.08;13.00;;;;;;;2.86;61.96;101072.83;1729383;83;21422;-71
2024/03/06 16:05:17;;;;;;;26.87;13.80;;;;;;;2.82;62.19;101071.88;1729377;83;21448;-71
2024/03/06 16:07:46;;;;;;;31.73;13.40;;;;;;;2.83;62.31;101074.44;1729271;83;21149;-71
2024/03/06 16:10:16;;;;;;;22.93;12.18;;;;;;;2.84;62.43;101075.30;1727117;83;21174;-70
2024/03/06 16:12:45;;;;;;;29.63;13.13;;;;;;;2.86;62.47;101070.62;1729386;83;21220;-70
2024/03/06 16:15:15;;;;;;;34.95;16.90;;;;;;;2.85;62.49;101086.00;1729365;83;21165;-70
2024/03/06 16:17:45;;;;;;;38.85;16.77;;;;;;;2.82;62.69;101086.75;1729266;83;21169;-70
2024/03/06 16:20:14;;;;;;;48.68;20.35;;;;;;;2.75;63.07;101090.48;1729239;83;21145;-71
2024/03/06 16:22:43;;;;;;;30.60;14.73;;;;;;;2.70;63.69;101094.07;1705505;83;21111;-71
2024/03/06 16:25:12;;;;;;;33.83;15.85;;;;;;;2.65;64.04;101104.42;1723492;83;21150;-71
2024/03/06 16:27:41;;;;;;;35.43;15.95;;;;;;;2.61;64.40;101102.97;1718442;83;21127;-70
2024/03/06 16:30:11;;;;;;;34.33;16.02;;;;;;;2.57;65.18;101109.59;1702325;83;21153;-71
2024/03/06 16:32:41;;;;;;;32.08;15.13;;;;;;;2.62;65.40;101107.88;1726388;82;21585;-71
2024/03/06 16:35:10;;;;;;;37.15;17.30;;;;;;;2.59;65.53;101117.58;1710219;84;21154;-71
2024/03/06 16:37:38;;;;;;;37.20;17.20;;;;;;;2.45;65.73;101111.97;1662155;84;21137;-72
2024/03/06 16:40:10;;;;;;;36.13;16.20;;;;;;;2.35;66.24;101119.13;1684378;84;21186;-72
2024/03/06 16:42:39;;;;;;;32.15;15.28;;;;;;;2.54;72.34;101125.59;1710292;84;21197;-71
2024/03/06 16:45:11;;;;;;;31.75;14.58;;;;;;;2.73;70.72;101124.93;1710341;84;21185;-73
2024/03/06 16:47:39;;;;;;;27.80;13.60;;;;;;;2.67;68.85;101125.45;1710110;84;21173;-70
2024/03/06 16:50:09;;;;;;;29.95;14.63;;;;;;;2.58;67.88;101127.53;1710263;84;21678;-71
2024/03/06 16:52:39;;;;;;;27.37;14.18;;;;;;;2.53;67.50;101129.77;1710214;83;21153;-71
2024/03/06 16:55:08;;;;;;;33.92;16.05;;;;;;;2.52;67.46;101142.93;1710237;83;21169;-73
2024/03/06 16:57:37;;;;;;;40.00;15.93;;;;;;;2.43;66.60;101142.34;1726669;83;21127;-73
2024/03/06 17:00:08;;;;;;;27.22;12.85;;;;;;;2.38;66.51;101130.55;1727269;83;21194;-70
2024/03/06 17:02:38;;;;;;;27.95;13.30;;;;;;;2.31;66.04;101132.54;1702630;83;21182;-70
2024/03/06 17:05:08;;;;;;;29.30;14.07;;;;;;;2.18;65.68;101140.80;1727210;83;21206;-69
2024/03/06 17:07:37;;;;;;;40.52;18.55;;;;;;;2.08;65.72;101144.75;1727019;83;21173;-69
2024/03/06 17:10:08;;;;;;;36.35;16.52;;;;;;;2.00;65.60;101139.11;1726915;83;21136;-70
2024/03/06 17:12:37;;;;;;;29.90;14.70;;;;;;;1.91;65.87;101142.03;1727046;83;21593;-69
2024/03/06 17:15:07;;;;;;;30.55;14.85;;;;;;;1.88;66.16;101144.98;1702897;83;21181;-69
2024/03/06 17:17:36;;;;;;;26.68;13.35;;;;;;;1.88;66.39;101142.77;1726919;83;21270;-69
2024/03/06 17:20:07;;;;;;;32.00;14.83;;;;;;;1.88;66.52;101145.48;1727006;83;21114;-70
2024/03/06 17:22:37;;;;;;;33.13;14.38;;;;;;;1.84;66.62;101148.05;1727190;82;21586;-69
2024/03/06 17:25:07;;;;;;;33.75;15.80;;;;;;;1.84;66.83;101144.00;1726940;82;21184;-69
2024/03/06 17:27:36;;;;;;;31.05;13.58;;;;;;;1.85;67.04;101143.88;1727310;83;21150;-69
2024/03/06 17:30:27;;;;;;;31.82;14.63;;;;;;;1.87;67.16;101150.02;1727375;83;21169;-69
2024/03/06 17:32:56;;;;;;;29.87;14.78;;;;;;;1.89;67.23;101152.59;1675117;86;21137;-70
2024/03/06 17:35:25;;;;;;;28.23;13.93;;;;;;;1.84;67.33;101152.11;1675019;86;21133;-71
2024/03/06 17:37:54;;;;;;;26.52;12.58;;;;;;;1.83;67.59;101150.39;1675133;86;21169;-70
2024/03/06 17:40:23;;;;;;;31.00;13.60;;;;;;;1.81;67.79;101150.52;1674943;86;21663;-69
2024/03/06 17:42:51;;;;;;;31.35;13.72;;;;;;;1.74;68.02;101154.69;1675219;86;21211;-70
2024/03/06 17:45:20;;;;;;;27.13;13.58;;;;;;;1.71;68.30;101155.42;1675026;86;21451;-68
2024/03/06 17:47:49;;;;;;;27.20;13.90;;;;;;;1.68;68.42;101157.02;1674956;86;21689;-70
2024/03/06 17:50:17;;;;;;;29.60;14.07;;;;;;;1.68;68.56;101155.18;1675293;86;21169;-70
2024/03/06 17:52:46;;;;;;;27.87;12.73;;;;;;;1.70;68.70;101158.62;1674987;86;21145;-69
2024/03/06 17:55:14;;;;;;;29.45;14.00;;;;;;;1.72;68.72;101160.70;1674950;86;21125;-70
2024/03/06 17:57:46;;;;;;;26.87;12.45;;;;;;;1.70;68.64;101160.46;1675438;86;21217;-69
2024/03/06 18:00:17;;;;;;;26.40;12.98;;;;;;;1.69;68.69;101153.34;1674954;86;21604;-70
2024/03/06 18:02:45;;;;;;;30.68;13.93;;;;;;;1.65;68.65;101158.61;1675232;85;21153;-69
2024/03/06 18:05:16;;;;;;;27.60;13.58;;;;;;;1.65;68.81;101159.97;1675142;86;21632;-69
2024/03/06 18:07:45;;;;;;;28.92;12.60;;;;;;;1.68;68.93;101166.48;1675277;86;21166;-70
2024/03/06 18:10:17;;;;;;;28.27;13.25;;;;;;;1.72;69.10;101172.00;1675137;86;21149;-69
2024/03/06 18:12:45;;;;;;;29.12;13.45;;;;;;;1.76;69.32;101165.37;1674927;86;21153;-70
2024/03/06 18:15:15;;;;;;;25.37;12.10;;;;;;;1.75;69.33;101167.22;1675016;85;21651;-70
2024/03/06 18:17:44;;;;;;;30.60;13.05;;;;;;;1.72;69.45;101172.00;1675026;85;21200;-69
2024/03/06 18:20:12;;;;;;;24.07;11.57;;;;;;;1.70;69.67;101169.42;1675199;85;21118;-70
2024/03/06 18:22:41;;;;;;;25.80;12.70;;;;;;;1.64;69.80;101174.45;1674945;86;21197;-69
2024/03/06 18:25:10;;;;;;;23.60;11.43;;;;;;;1.58;69.96;101173.09;1674916;85;21188;-70
2024/03/06 18:27:38;;;;;;;23.50;12.33;;;;;;;1.56;70.07;101173.22;1675229;86;21117;-68
2024/03/06 18:30:09;;;;;;;24.55;11.73;;;;;;;1.51;70.39;101170.02;1674975;86;21200;-69
2024/03/06 18:32:38;;;;;;;25.20;12.63;;;;;;;1.54;70.64;101175.18;1690326;83;21573;-70
2024/03/06 18:35:07;;;;;;;30.17;13.13;;;;;;;1.55;70.69;101174.20;1652222;86;21639;-69
2024/03/06 18:37:36;;;;;;;24.25;11.40;;;;;;;1.56;70.89;101174.57;1657602;85;21215;-70
2024/03/06 18:40:05;;;;;;;26.33;12.50;;;;;;;1.57;71.12;101168.19;1676871;85;21803;-70
2024/03/06 18:42:34;;;;;;;28.77;13.10;;;;;;;1.56;71.65;101174.57;1677046;85;21139;-70
2024/03/06 18:45:03;;;;;;;26.82;12.20;;;;;;;1.56;71.88;101175.92;1654290;85;21238;-70
2024/03/06 18:47:33;;;;;;;30.23;13.90;;;;;;;1.62;72.05;101183.17;1676873;85;21170;-69
2024/03/06 18:50:07;;;;;;;26.82;12.43;;;;;;;1.61;72.17;101181.45;1657592;85;21187;-69
2024/03/06 18:52:36;;;;;;;24.63;12.07;;;;;;;1.62;72.36;101180.47;1677254;85;21195;-69
2024/03/06 18:55:07;;;;;;;28.35;12.95;;;;;;;1.63;72.56;101184.40;1657567;85;21207;-69
2024/03/06 18:57:36;;;;;;;27.82;12.33;;;;;;;1.59;72.75;101187.83;1676920;85;21179;-69
2024/03/06 19:00:06;;;;;;;27.48;13.25;;;;;;;1.57;72.94;101192.98;1657747;85;21187;-69
2024/03/06 19:02:37;;;;;;;25.12;12.47;;;;;;;1.55;73.11;101196.30;1676904;85;21179;-69
2024/03/06 19:05:09;;;;;;;29.48;13.20;;;;;;;1.48;73.25;101185.61;1677080;85;21176;-70
2024/03/06 19:07:38;;;;;;;30.80;13.70;;;;;;;1.47;73.49;101186.09;1676872;85;21151;-69
2024/03/06 19:10:08;;;;;;;27.52;12.50;;;;;;;1.48;73.57;101187.81;1657706;85;21635;-68
2024/03/06 19:12:37;;;;;;;28.12;13.25;;;;;;;1.48;73.61;101190.52;1677169;85;21191;-70
2024/03/06 19:15:07;;;;;;;28.02;12.75;;;;;;;1.45;73.80;101193.45;1677071;85;21171;-69
2024/03/06 19:17:35;;;;;;;28.62;13.45;;;;;;;1.48;74.01;101192.36;1677094;85;21186;-69
2024/03/06 19:20:06;;;;;;;26.90;12.58;;;;;;;1.51;73.98;101195.67;1677179;85;21219;-70
2024/03/06 19:22:35;;;;;;;33.85;13.60;;;;;;;1.51;73.93;101197.03;1676882;85;21586;-70
2024/03/06 19:25:06;;;;;;;29.52;12.70;;;;;;;1.49;74.00;101196.78;1676919;85;21180;-69
2024/03/06 19:27:38;;;;;;;25.45;12.93;;;;;;;1.49;74.09;101196.78;1676815;85;21166;-69
2024/03/06 19:30:09;;;;;;;27.48;12.80;;;;;;;1.49;74.08;101200.34;1677049;85;21163;-69
2024/03/06 19:32:39;;;;;;;23.50;11.50;;;;;;;1.45;73.87;101193.95;1676958;85;21371;-71
2024/03/06 19:35:09;;;;;;;23.92;11.60;;;;;;;1.40;74.14;101201.05;1675358;85;21146;-69
2024/03/06 19:37:39;;;;;;;25.45;12.15;;;;;;;1.39;74.39;101200.69;1677296;85;21150;-69
2024/03/06 19:40:08;;;;;;;29.77;12.33;;;;;;;1.37;74.37;101195.89;1658069;85;21138;-69
2024/03/06 19:42:37;;;;;;;26.02;12.25;;;;;;;1.35;74.47;101193.80;1677218;85;21189;-69
2024/03/06 19:45:07;;;;;;;28.42;12.18;;;;;;;1.36;74.71;101202.27;1677164;85;21553;-69
2024/03/06 19:47:36;;;;;;;28.92;13.15;;;;;;;1.35;74.62;101192.94;1677173;85;21308;-69
2024/03/06 19:50:08;;;;;;;27.22;12.45;;;;;;;1.34;74.79;101196.13;1677324;85;21162;-69
2024/03/06 19:52:37;;;;;;;27.48;12.63;;;;;;;1.35;74.82;101192.45;1658381;85;21162;-70
2024/03/06 19:55:07;;;;;;;27.62;13.32;;;;;;;1.36;75.01;101198.22;1677491;85;21173;-69
2024/03/06 19:57:36;;;;;;;27.17;12.55;;;;;;;1.38;75.10;101197.61;1677329;85;21166;-70
2024/03/06 20:00:11;;;;;;;24.18;12.05;;;;;;;1.39;75.14;101197.98;1677250;85;21221;-69
2024/03/06 20:02:39;;;;;;;23.30;11.03;;;;;;;1.39;75.19;101197.13;1677175;85;21733;-69
2024/03/06 20:05:08;;;;;;;26.62;12.05;;;;;;;1.39;75.21;101199.34;1677108;85;21142;-70
2024/03/06 20:07:38;;;;;;;26.23;11.50;;;;;;;1.40;75.20;101197.00;1677058;85;21153;-70
2024/03/06 20:10:09;;;;;;;27.60;11.95;;;;;;;1.40;75.48;101194.30;1658172;85;21166;-69
2024/03/06 20:12:38;;;;;;;24.52;12.05;;;;;;;1.36;75.35;101196.02;1677179;85;21649;-70
2024/03/06 20:15:07;;;;;;;22.70;11.22;;;;;;;1.33;75.38;101191.71;1677196;85;21154;-69
2024/03/06 20:17:35;;;;;;;25.30;11.48;;;;;;;1.34;75.42;101188.52;1677095;85;21585;-70
2024/03/06 20:20:10;;;;;;;23.22;11.20;;;;;;;1.31;75.38;101192.81;1677483;85;21107;-70
2024/03/06 20:22:39;;;;;;;24.82;11.38;;;;;;;1.29;75.17;101190.20;1658336;85;21343;-69
2024/03/06 20:25:10;;;;;;;26.07;11.12;;;;;;;1.24;75.10;101185.64;1677184;85;21138;-69
2024/03/06 20:27:39;;;;;;;22.10;10.55;;;;;;;1.23;75.05;101187.48;1677310;85;21158;-70
2024/03/06 20:30:08;;;;;;;19.02;9.88;;;;;;;1.26;75.00;101183.69;1677117;85;21646;-69
2024/03/06 20:32:38;;;;;;;24.50;11.38;;;;;;;1.27;74.66;101188.11;1671962;85;21166;-69
2024/03/06 20:35:07;;;;;;;23.07;10.45;;;;;;;1.27;74.45;101185.41;1627599;88;21213;-69
2024/03/06 20:37:36;;;;;;;21.60;11.00;;;;;;;1.28;74.37;101192.03;1652447;87;21206;-70
2024/03/06 20:40:06;;;;;;;22.50;10.78;;;;;;;1.29;74.24;101184.80;1627730;88;21192;-71
2024/03/06 20:42:36;;;;;;;23.60;11.38;;;;;;;1.31;74.07;101186.06;1652366;87;21163;-69
2024/03/06 20:45:05;;;;;;;21.25;10.38;;;;;;;1.31;73.96;101180.17;1627521;88;21624;-70
2024/03/06 20:47:35;;;;;;;19.48;9.38;;;;;;;1.34;73.71;101188.03;1652533;87;21210;-69
2024/03/06 20:50:06;;;;;;;18.35;9.38;;;;;;;1.33;73.41;101176.86;1672028;86;21165;-69
2024/03/06 20:52:35;;;;;;;25.20;9.68;;;;;;;1.29;73.02;101183.45;1672248;86;21186;-70
2024/03/06 20:55:05;;;;;;;20.15;9.65;;;;;;;1.26;72.91;101187.73;1672093;86;21150;-69
2024/03/06 20:57:34;;;;;;;19.48;9.65;;;;;;;1.22;72.73;101188.45;1672025;86;21185;-69
2024/03/06 21:00:03;;;;;;;20.40;8.53;;;;;;;1.25;72.61;101192.77;1672132;86;21577;-70
2024/03/06 21:02:32;;;;;;;20.72;9.43;;;;;;;1.22;72.23;101187.60;1672255;86;21126;-69
2024/03/06 21:05:01;;;;;;;17.25;9.40;;;;;;;1.20;71.99;101191.77;1672199;86;21602;-70
2024/03/06 21:07:31;;;;;;;18.17;9.35;;;;;;;1.21;72.00;101188.58;1672068;86;21202;-70
2024/03/06 21:10:00;;;;;;;18.05;8.88;;;;;;;1.22;71.84;101190.30;1672293;86;21159;-69
2024/03/06 21:12:30;;;;;;;16.15;8.23;;;;;;;1.21;71.70;101189.93;1672047;86;21703;-70
2024/03/06 21:14:59;;;;;;;18.77;8.63;;;;;;;1.19;71.38;101189.19;1672091;86;21582;-69
2024/03/06 21:17:28;;;;;;;15.98;8.10;;;;;;;1.18;71.09;101188.81;1672152;86;21162;-69
2024/03/06 21:19:56;;;;;;;14.95;8.50;;;;;;;1.17;70.83;101191.14;1672152;85;21194;-68
2024/03/06 21:22:27;;;;;;;23.22;8.85;;;;;;;1.15;70.48;101184.52;1671953;86;21174;-70
2024/03/06 21:24:55;;;;;;;14.70;7.87;;;;;;;1.16;70.40;101187.59;1672218;86;21146;-68
2024/03/06 21:27:25;;;;;;;16.80;7.95;;;;;;;1.18;70.26;101186.12;1672201;86;21625;-70
2024/03/06 21:29:55;;;;;;;17.55;7.72;;;;;;;1.21;69.91;101191.28;1651380;86;21118;-70
2024/03/06 21:32:24;;;;;;;14.73;7.42;;;;;;;1.22;69.42;101184.41;1682926;84;21596;-69
2024/03/06 21:34:52;;;;;;;13.08;6.42;;;;;;;1.23;69.18;101187.48;1707772;83;21170;-70
2024/03/06 21:37:20;;;;;;;13.83;7.05;;;;;;;1.23;68.68;101188.83;1707486;84;21164;-69
2024/03/06 21:39:49;;;;;;;15.03;7.45;;;;;;;1.23;68.40;101190.18;1707470;83;21157;-69
2024/03/06 21:42:19;;;;;;;12.37;6.50;;;;;;;1.27;68.03;101193.50;1707475;84;21181;-69
2024/03/06 21:44:47;;;;;;;14.13;6.75;;;;;;;1.28;67.76;101192.03;1707504;84;21184;-69
2024/03/06 21:47:15;;;;;;;12.63;6.58;;;;;;;1.32;67.33;101193.18;1707463;83;21643;-69
2024/03/06 21:49:44;;;;;;;10.50;6.10;;;;;;;1.31;66.97;101196.86;1707472;84;21212;-70
2024/03/06 21:52:14;;;;;;;11.10;5.87;;;;;;;1.29;66.36;101200.99;1707458;83;21208;-69
2024/03/06 21:54:43;;;;;;;11.43;6.20;;;;;;;1.26;66.26;101199.87;1707676;84;21161;-69
2024/03/06 21:57:15;;;;;;;12.90;6.72;;;;;;;1.27;65.90;101194.85;1707729;84;21161;-70
2024/03/06 21:59:43;;;;;;;11.38;5.67;;;;;;;1.26;65.64;101202.58;1707748;84;21200;-70
2024/03/06 22:02:12;;;;;;;11.97;5.97;;;;;;;1.24;65.35;101194.60;1707698;84;21189;-70
2024/03/06 22:04:41;;;;;;;11.40;6.05;;;;;;;1.22;65.16;101199.75;1707634;84;21121;-70
2024/03/06 22:07:09;;;;;;;11.05;5.80;;;;;;;1.20;65.02;101194.47;1707488;84;21157;-70
2024/03/06 22:09:38;;;;;;;12.37;5.92;;;;;;;1.20;64.80;101194.95;1707591;83;21133;-72
2024/03/06 22:12:07;;;;;;;12.10;6.10;;;;;;;1.19;64.75;101198.14;1707590;84;21605;-70
2024/03/06 22:14:36;;;;;;;11.12;5.25;;;;;;;1.20;64.62;101192.26;1707648;84;21129;-69
2024/03/06 22:17:05;;;;;;;10.68;5.33;;;;;;;1.22;64.57;101194.34;1660018;84;21142;-69
2024/03/06 22:19:33;;;;;;;13.50;5.92;;;;;;;1.26;64.58;101197.19;1707789;84;21130;-69
2024/03/06 22:22:03;;;;;;;9.88;5.47;;;;;;;1.28;64.45;101198.78;1707548;83;21173;-68
2024/03/06 22:24:32;;;;;;;12.05;6.35;;;;;;;1.29;64.35;101198.30;1707646;84;21135;-70
2024/03/06 22:27:01;;;;;;;12.18;6.58;;;;;;;1.29;64.33;101203.70;1707507;84;21130;-71
2024/03/06 22:29:29;;;;;;;12.60;6.10;;;;;;;1.32;64.29;101202.14;1707570;84;21165;-70
2024/03/06 22:31:59;;;;;;;12.33;6.40;;;;;;;1.33;64.20;101194.41;1707566;83;21181;-69
2024/03/06 22:34:27;;;;;;;12.68;6.20;;;;;;;1.35;64.11;101203.25;1707693;84;21161;-70
2024/03/06 22:36:56;;;;;;;12.60;6.03;;;;;;;1.37;64.00;101204.48;1707544;84;21580;-70
2024/03/06 22:39:24;;;;;;;11.60;5.80;;;;;;;1.36;63.89;101207.67;1707380;83;21141;-71
2024/03/06 22:41:53;;;;;;;9.80;5.15;;;;;;;1.35;63.70;101196.50;1707602;83;21129;-70
2024/03/06 22:44:21;;;;;;;8.90;5.30;;;;;;;1.32;63.22;101206.67;1707543;84;21160;-69
2024/03/06 22:46:50;;;;;;;9.70;5.47;;;;;;;1.23;63.07;101206.87;1707762;84;21137;-69
2024/03/06 22:49:21;;;;;;;9.80;4.95;;;;;;;1.19;63.09;101213.48;1707124;84;21150;-70
2024/03/06 22:51:50;;;;;;;9.80;5.25;;;;;;;1.18;63.05;101215.31;1707498;83;21185;-69
2024/03/06 22:54:18;;;;;;;11.20;5.28;;;;;;;1.19;62.86;101212.13;1707571;83;21180;-67
2024/03/06 22:56:47;;;;;;;9.68;5.33;;;;;;;1.16;62.71;101201.57;1707600;83;21177;-68
2024/03/06 22:59:16;;;;;;;8.43;5.10;;;;;;;1.16;62.71;101213.72;1706877;84;21164;-69
2024/03/06 23:01:44;;;;;;;10.15;5.25;;;;;;;1.14;62.71;101208.44;1707799;83;21117;-69
2024/03/06 23:04:13;;;;;;;9.43;5.05;;;;;;;1.15;62.78;101203.41;1683841;84;21169;-70
2024/03/06 23:06:42;;;;;;;8.83;5.22;;;;;;;1.16;62.82;101195.69;1707493;83;21734;-69
2024/03/06 23:09:13;;;;;;;10.25;5.05;;;;;;;1.17;62.61;101205.50;1707541;84;21134;-69
2024/03/06 23:11:41;;;;;;;9.73;5.25;;;;;;;1.12;62.67;101204.99;1707467;84;21588;-69
2024/03/06 23:14:10;;;;;;;9.40;5.37;;;;;;;1.12;62.72;101200.08;1707497;83;21637;-68
2024/03/06 23:16:38;;;;;;;9.03;4.80;;;;;;;1.11;62.69;101199.71;1707746;83;21142;-69
2024/03/06 23:19:07;;;;;;;7.47;4.10;;;;;;;1.10;62.60;101199.34;1707442;84;22032;-69
2024/03/06 23:21:37;;;;;;;10.63;5.08;;;;;;;1.07;62.51;101196.88;1707645;84;21142;-70
2024/03/06 23:24:06;;;;;;;9.28;4.87;;;;;;;1.01;62.61;101199.55;1707574;83;21197;-69
2024/03/06 23:26:35;;;;;;;10.50;4.45;;;;;;;1.03;62.67;101196.73;1707568;83;21137;-69
2024/03/06 23:29:03;;;;;;;8.68;3.95;;;;;;;1.02;62.68;101193.67;1707544;84;21180;-69
2024/03/06 23:31:32;;;;;;;9.90;4.67;;;;;;;0.99;62.55;101200.16;1683549;83;21608;-70
2024/03/06 23:34:00;;;;;;;9.35;4.30;;;;;;;0.95;62.57;101199.53;1698283;84;21181;-69
2024/03/06 23:36:30;;;;;;;8.40;4.70;;;;;;;0.95;62.67;101191.92;1694672;85;21166;-70
2024/03/06 23:38:58;;;;;;;6.75;4.17;;;;;;;0.95;62.77;101191.44;1694749;85;21118;-70
2024/03/06 23:41:28;;;;;;;8.83;4.58;;;;;;;0.94;62.72;101189.72;1694760;85;21366;-68
2024/03/06 23:43:57;;;;;;;7.40;4.17;;;;;;;0.96;62.71;101189.60;1694984;85;21174;-70
2024/03/06 23:46:25;;;;;;;9.18;5.00;;;;;;;0.97;62.71;101189.11;1674975;85;21162;-69
2024/03/06 23:48:53;;;;;;;8.50;4.60;;;;;;;0.98;62.66;101193.53;1694645;85;21676;-70
2024/03/06 23:51:23;;;;;;;7.53;4.58;;;;;;;0.98;62.67;101186.78;1694830;85;21162;-69